Mayville, New York
Current Conditions -  °F | °C
As of 12:35 AM on Monday 22 Dec 2014 (Local Time) from KJHW Reporting Station
Clear Clear  
Wind Chill: 16°   Ceiling: Unl
Heat Index: 23°   Visibility: 10mi
Dew Point: 18°   Wind: 6mph
Humidity: 80%   Direction: 120°ESE
Pressure: 30.18"   Gusts: NA
Location:  42.25°N, 79.5°W
Report Text: KJHW 220535Z 12005KT 10SM CLR M05/M08 A3018 RMK AO1
Loading
Personal Weather Stations






























Interactive Weather Map New forecast layout! Learn more

10-Day Weather Forecast

Advertisements
Track Severe Weather on mobile